BUCHANAN DAM (BUC)

Elevation: 450' · CHOWCHILLA R basin · Operator: US Army Corps of Engineers

Provisional data, subject to change.
Query executed Sunday at 18:01:08   clock

Select a sensor type for a plot of data.
Note: Reservoir Flows are daily averages.

Earlier

Date RES ELE    STORAGE    RES CHG    TOC STO    ABV TOC    OUTFLOW    INFLOW    PPT INC    TEMP MN    TEMP MX   
 FEET   AF   AF   AF   AF   CFS   CFS   INCHES   DEG F   DEG F  
12/26/2014 469.30 11818 -- 105937 -94119 0 1 -- -18 12
12/27/2014 469.30 11818 -- 106107 -- 0 1 -- 0 14
12/28/2014 469.30 11818 -- 106280 -94462 0 1 -- 0 12
12/29/2014 469.32 11829 11 106457 -94628 0 6 -- -0 12
12/30/2014 469.30 11818 -11 106638 -94820 0 -5 -- -0 8
12/31/2014 469.30 11818 0 -- -- -- -- -- -- --
01/01/2015 469.31 11823 5 107004 -95181 0 3 -- -2 11
01/02/2015 469.32 11829 6 107193 -95364 0 4 -- -2 11
01/03/2015 469.32 11829 0 107384 -95555 0 1 -- -2 13
01/04/2015 469.32 11829 0 107577 -95748 0 1 -- -0 14
01/05/2015 469.32 11829 0 107762 -95933 0 1 -- 1 14
01/06/2015 469.33 11834 5 107934 -96100 0 3 -- 2 17
01/07/2015 469.34 11839 5 108134 -96295 0 4 -- 4 18
01/08/2015 469.35 11844 5 108336 -96492 0 3 -- 5 17
01/09/2015 469.35 11844 0 108540 -96696 0 1 -- 8 19
01/10/2015 469.36 11850 6 108746 -96896 0 4 -- 8 18
01/11/2015 469.35 11844 -6 108929 -97085 0 -2 -- 6 18
01/12/2015 469.36 11850 6 109107 -97257 0 4 -- 6 12
01/13/2015 469.37 11855 5 109286 -97431 0 3 -- 6 15
01/14/2015 469.38 11860 5 109464 -97604 0 4 -- 3 17
01/15/2015 469.40 11871 11 109643 -97772 0 6 -- 2 13
01/16/2015 469.38 11860 -11 109821 -97961 0 -5 -- 6 11
01/17/2015 469.41 11876 16 110000 -98124 0 9 -- 6 13
01/18/2015 469.41 11876 0 110179 -98303 0 1 -- 7 11
01/19/2015 469.40 11871 -5 110357 -98486 0 -2 -- 6 9
01/20/2015 469.41 11876 5 110536 -98660 0 3 -- 6 10
01/21/2015 469.42 11881 0 110714 -98833 0 3 -- 7 10
01/22/2015 469.41 11876 -5 110893 -99017 0 -2 -- 2 11
01/23/2015 469.43 11887 11 111071 -99184 0 6 -- 1 8
01/24/2015 469.41 11876 -11 111250 -99374 -- -- -- -- --
01/25/2015 -- -- -- -- -- -- -- -- -- --

Later | Latest

Warning! This data is preliminary and subject to revision.

Show BUC Map | Plot BUC Data | 1 Month BUC Data | Real-Time BUC Data | BUC Info